Moon, Virginia
Current Conditions -  °F | °C
As of 10:15 AM on Thursday 30 Oct 2014 (Local Time) from KW75 Reporting Station
Clear Clear  
Wind Chill: 56°   Ceiling: Unl
Heat Index: 56°   Visibility: 10mi
Dew Point: 46°   Wind: 8mph
Humidity: 70%   Direction: 340°NNW
Pressure: 30.05"   Gusts: NA
Location:  37.44°N, 76.29°W
Report Text: KW75 301415Z AUTO 34007KT 300V360 10SM CLR 13/08 A3005 RMK AO1 T01310077
Loading
Personal Weather Stations






























Interactive Weather Map
Tropical Storm Tracking
New forecast layout! Learn more

10-Day Weather Forecast

Advertisements
Track Severe Weather on mobile